createdAt,value
2018-01-14T00:00:03.392Z,37.25
2018-01-14T00:00:34.895Z,35.47
2018-01-14T00:01:06.500Z,37.13
2018-01-14T00:01:38.079Z,36.63
2018-01-14T00:02:09.673Z,39.53
2018-01-14T00:02:41.277Z,39.50
2018-01-14T00:03:12.867Z,37.60
2018-01-14T00:03:44.455Z,38.90
2018-01-14T00:04:16.015Z,31.98
2018-01-14T00:04:47.587Z,39.60
2018-01-14T00:05:19.151Z,38.70
2018-01-14T00:05:50.709Z,38.40
2018-01-14T00:06:22.255Z,33.58
2018-01-14T00:06:53.845Z,34.15
2018-01-14T00:07:25.404Z,36.55
2018-01-14T00:07:56.959Z,32.65
2018-01-14T00:08:28.505Z,36.50
2018-01-14T00:09:00.062Z,39.05
2018-01-14T00:09:31.641Z,35.63
2018-01-14T00:10:03.239Z,41.08
2018-01-14T00:10:34.816Z,39.95
2018-01-14T00:11:06.347Z,40.22
2018-01-14T00:11:37.886Z,42.55
2018-01-14T00:12:09.420Z,30.65
2018-01-14T00:12:40.988Z,32.45
2018-01-14T00:13:12.555Z,41.42
2018-01-14T00:13:44.109Z,37.25
2018-01-14T00:14:15.685Z,41.05
2018-01-14T00:14:47.240Z,44.63
2018-01-14T00:15:18.799Z,42.90
2018-01-14T00:15:50.344Z,40.85
2018-01-14T00:16:21.894Z,38.17
2018-01-14T00:16:53.461Z,40.28
2018-01-14T00:17:25.022Z,40.15
2018-01-14T00:17:56.592Z,40.67
2018-01-14T00:18:28.175Z,40.42
2018-01-14T00:18:59.722Z,43.53
2018-01-14T00:19:31.284Z,41.15
2018-01-14T00:20:02.895Z,39.13
2018-01-14T00:20:34.468Z,42.90
2018-01-14T00:21:06.009Z,38.85
2018-01-14T00:21:37.577Z,39.28
2018-01-14T00:22:09.133Z,50.72
2018-01-14T00:22:40.702Z,35.53
2018-01-14T00:23:12.253Z,42.65
2018-01-14T00:23:43.803Z,40.58
2018-01-14T00:24:15.369Z,32.78
2018-01-14T00:24:46.968Z,37.85
2018-01-14T00:25:18.493Z,45.10
2018-01-14T00:25:50.063Z,38.10
2018-01-14T00:26:21.665Z,39.85
2018-01-14T00:26:53.219Z,42.17
2018-01-14T00:27:24.771Z,45.70
2018-01-14T00:27:56.333Z,44.78
2018-01-14T00:28:27.900Z,46.20
2018-01-14T00:28:59.461Z,48.20
2018-01-14T00:29:31.009Z,39.30
2018-01-14T00:30:02.645Z,38.08
2018-01-14T00:30:34.224Z,38.90
2018-01-14T00:31:05.793Z,42.40
2018-01-14T00:31:37.361Z,36.75
2018-01-14T00:32:08.915Z,38.35
2018-01-14T00:32:40.480Z,45.03
2018-01-14T00:33:12.048Z,46.80
2018-01-14T00:33:43.617Z,42.78
2018-01-14T00:34:15.182Z,47.03
2018-01-14T00:34:46.738Z,40.63
2018-01-14T00:35:18.293Z,40.30
2018-01-14T00:35:49.851Z,42.35
2018-01-14T00:36:21.426Z,44.80
2018-01-14T00:36:52.977Z,43.17
2018-01-14T00:37:24.549Z,44.03
2018-01-14T00:37:56.097Z,44.75
2018-01-14T00:38:27.671Z,47.28
2018-01-14T00:38:59.234Z,42.15
2018-01-14T00:39:30.845Z,46.00
2018-01-14T00:40:02.409Z,42.45
2018-01-14T00:40:33.969Z,39.40
2018-01-14T00:41:05.542Z,40.63
2018-01-14T00:41:37.119Z,38.80
2018-01-14T00:42:08.692Z,39.92
2018-01-14T00:42:40.265Z,48.05
2018-01-14T00:43:11.805Z,43.22
2018-01-14T00:43:43.365Z,43.72
2018-01-14T00:44:14.912Z,47.10
2018-01-14T00:44:46.468Z,46.85
2018-01-14T00:45:18.015Z,46.08
2018-01-14T00:45:49.596Z,51.13
2018-01-14T00:46:21.187Z,45.72
2018-01-14T00:46:52.781Z,46.35
2018-01-14T00:47:24.339Z,45.33
2018-01-14T00:47:55.893Z,43.08
2018-01-14T00:48:27.441Z,49.35
2018-01-14T00:48:59.025Z,48.25
2018-01-14T00:49:30.604Z,45.67
2018-01-14T00:50:02.177Z,47.78
2018-01-14T00:50:33.749Z,43.22
2018-01-14T00:51:05.317Z,48.15
2018-01-14T00:51:36.897Z,43.70
2018-01-14T00:52:08.437Z,46.30
2018-01-14T00:52:39.996Z,47.33
2018-01-14T00:53:11.551Z,47.67
2018-01-14T00:53:43.103Z,43.45
2018-01-14T00:54:14.655Z,53.50
2018-01-14T00:54:46.222Z,43.55
2018-01-14T00:55:17.788Z,42.45
2018-01-14T00:55:49.349Z,47.97
2018-01-14T00:56:20.922Z,51.45
2018-01-14T00:56:52.470Z,47.08
2018-01-14T00:57:24.053Z,49.28
2018-01-14T00:57:55.600Z,44.55
2018-01-14T00:58:27.147Z,57.85
2018-01-14T00:58:58.713Z,51.28
2018-01-14T00:59:30.269Z,47.72
2018-01-14T01:00:01.854Z,48.53
2018-01-14T01:00:33.466Z,47.78
2018-01-14T01:01:05.057Z,47.50
2018-01-14T01:01:36.652Z,47.45
2018-01-14T01:02:08.236Z,56.90
2018-01-14T01:02:39.818Z,50.97
2018-01-14T01:03:11.381Z,53.30
2018-01-14T01:03:42.958Z,49.50
2018-01-14T01:04:14.516Z,49.20
2018-01-14T01:04:46.084Z,45.20
2018-01-14T01:05:17.629Z,56.13
2018-01-14T01:05:49.208Z,50.15
2018-01-14T01:06:20.788Z,51.13
2018-01-14T01:06:52.355Z,48.70
2018-01-14T01:07:23.918Z,49.63
2018-01-14T01:07:55.517Z,58.67
2018-01-14T01:08:27.080Z,56.63
2018-01-14T01:08:58.676Z,56.47
2018-01-14T01:09:30.234Z,51.45
2018-01-14T01:10:01.774Z,49.33
2018-01-14T01:10:33.329Z,51.63
2018-01-14T01:11:04.886Z,53.47
2018-01-14T01:11:36.437Z,53.00
2018-01-14T01:12:08.014Z,51.45
2018-01-14T01:12:39.609Z,54.97
2018-01-14T01:13:11.180Z,53.65
2018-01-14T01:13:42.742Z,53.05
2018-01-14T01:14:14.300Z,49.63
2018-01-14T01:14:45.844Z,50.78
2018-01-14T01:15:17.432Z,57.88
2018-01-14T01:15:48.995Z,50.45
2018-01-14T01:16:20.549Z,47.17
2018-01-14T01:16:52.119Z,51.45
2018-01-14T01:17:23.734Z,60.35
2018-01-14T01:17:55.284Z,46.35
2018-01-14T01:18:26.829Z,50.20
2018-01-14T01:18:58.384Z,56.50
2018-01-14T01:19:29.952Z,54.45
2018-01-14T01:20:01.510Z,53.50
2018-01-14T01:20:33.065Z,56.00
2018-01-14T01:21:04.641Z,52.67
2018-01-14T01:21:36.193Z,46.30
2018-01-14T01:22:07.752Z,50.60
2018-01-14T01:22:39.306Z,56.40
2018-01-14T01:23:10.862Z,51.08
2018-01-14T01:23:42.425Z,54.78
2018-01-14T01:24:13.969Z,51.37
2018-01-14T01:24:45.538Z,48.58
2018-01-14T01:25:17.077Z,61.17
2018-01-14T01:25:48.643Z,56.63
2018-01-14T01:26:20.210Z,52.90
2018-01-14T01:26:51.750Z,46.58
2018-01-14T01:27:23.327Z,62.17
2018-01-14T01:27:54.890Z,62.85
2018-01-14T01:28:26.444Z,56.95
2018-01-14T01:28:58.001Z,59.75
2018-01-14T01:29:29.569Z,54.30
2018-01-14T01:30:01.120Z,57.47
2018-01-14T01:30:32.722Z,61.10
2018-01-14T01:31:04.284Z,61.40
2018-01-14T01:31:35.852Z,55.20
2018-01-14T01:32:07.408Z,56.75
2018-01-14T01:32:38.969Z,52.30
2018-01-14T01:33:10.517Z,40.90
2018-01-14T01:33:42.076Z,50.95
2018-01-14T01:34:13.625Z,63.20
2018-01-14T01:34:45.156Z,54.40
2018-01-14T01:35:16.724Z,60.97
2018-01-14T01:35:48.294Z,60.17
2018-01-14T01:36:19.870Z,52.50
2018-01-14T01:36:51.492Z,50.12
2018-01-14T01:37:23.020Z,52.25
2018-01-14T01:37:54.576Z,49.60
2018-01-14T01:38:26.132Z,62.42
2018-01-14T01:38:57.706Z,56.22
2018-01-14T01:39:29.276Z,53.15
2018-01-14T01:40:00.814Z,56.85
2018-01-14T01:40:32.379Z,58.13
2018-01-14T01:41:03.980Z,52.90
2018-01-14T01:41:35.535Z,60.60
2018-01-14T01:42:07.085Z,57.00
2018-01-14T01:42:38.664Z,61.40
2018-01-14T01:43:10.205Z,61.20
2018-01-14T01:43:41.768Z,54.67
2018-01-14T01:44:13.328Z,50.58
2018-01-14T01:44:44.896Z,53.92
2018-01-14T01:45:16.461Z,51.78
2018-01-14T01:45:48.038Z,57.58
2018-01-14T01:46:19.638Z,60.55
2018-01-14T01:46:51.191Z,54.08
2018-01-14T01:47:22.766Z,57.00
2018-01-14T01:47:54.300Z,49.80
2018-01-14T01:48:25.866Z,51.00
2018-01-14T01:48:57.464Z,58.30
2018-01-14T01:49:28.981Z,53.38
2018-01-14T01:50:00.538Z,54.78
2018-01-14T01:50:32.088Z,57.10
2018-01-14T01:51:03.644Z,54.95
2018-01-14T01:51:35.210Z,66.25
2018-01-14T01:52:06.790Z,59.83
2018-01-14T01:52:38.352Z,60.33
2018-01-14T01:53:09.908Z,50.12
2018-01-14T01:53:41.540Z,56.00
2018-01-14T01:54:13.118Z,47.33
2018-01-14T01:54:44.702Z,54.83
2018-01-14T01:55:16.290Z,56.15
2018-01-14T01:55:47.852Z,56.35
2018-01-14T01:56:19.408Z,55.78
2018-01-14T01:56:50.986Z,56.08
2018-01-14T01:57:22.542Z,51.53
2018-01-14T01:57:54.067Z,53.87
2018-01-14T01:58:25.600Z,50.58
2018-01-14T01:58:57.147Z,55.45
2018-01-14T01:59:28.676Z,53.87
2018-01-14T02:00:00.222Z,56.17
2018-01-14T02:00:31.792Z,61.08
2018-01-14T02:01:03.366Z,51.37
2018-01-14T02:01:34.912Z,54.67
2018-01-14T02:02:06.488Z,53.67
2018-01-14T02:02:38.044Z,52.83
2018-01-14T02:03:09.604Z,53.25
2018-01-14T02:03:41.204Z,55.75
2018-01-14T02:04:12.768Z,55.72
2018-01-14T02:04:44.310Z,55.65
2018-01-14T02:05:15.878Z,58.42
2018-01-14T02:05:47.480Z,51.80
2018-01-14T02:06:19.036Z,55.20
2018-01-14T02:06:50.622Z,49.28
2018-01-14T02:07:22.180Z,49.65
2018-01-14T02:07:53.770Z,53.05
2018-01-14T02:08:25.339Z,52.47
2018-01-14T02:08:56.910Z,51.85
2018-01-14T02:09:28.460Z,57.90
2018-01-14T02:10:00.028Z,53.00
2018-01-14T02:10:31.588Z,56.25
2018-01-14T02:11:03.182Z,49.40
2018-01-14T02:11:34.744Z,44.95
2018-01-14T02:12:06.304Z,52.85
2018-01-14T02:12:37.894Z,55.20
2018-01-14T02:13:09.494Z,55.08
2018-01-14T02:13:41.036Z,53.47
2018-01-14T02:14:12.600Z,57.67
2018-01-14T02:14:44.158Z,49.22
2018-01-14T02:15:15.736Z,54.97
2018-01-14T02:15:47.292Z,54.10
2018-01-14T02:16:18.878Z,50.67
2018-01-14T02:16:50.444Z,53.40
2018-01-14T02:17:22.007Z,51.95
2018-01-14T02:17:53.598Z,45.88
2018-01-14T02:18:25.174Z,41.67
2018-01-14T02:18:56.751Z,51.65
2018-01-14T02:19:28.322Z,54.28
2018-01-14T02:19:59.892Z,57.92
2018-01-14T02:20:31.513Z,59.00
2018-01-14T02:21:03.147Z,57.80
2018-01-14T02:21:34.716Z,55.92
2018-01-14T02:22:06.266Z,51.63
2018-01-14T02:22:38.722Z,48.50
2018-01-14T02:23:10.272Z,50.75
2018-01-14T02:23:41.834Z,59.75
2018-01-14T02:24:13.406Z,42.90
2018-01-14T02:24:44.976Z,60.30
2018-01-14T02:25:16.556Z,53.38
2018-01-14T02:25:48.120Z,50.53
2018-01-14T02:26:19.692Z,43.90
2018-01-14T02:26:51.314Z,54.78
2018-01-14T02:27:22.886Z,56.90
2018-01-14T02:27:54.436Z,59.90
2018-01-14T02:28:25.990Z,51.92
2018-01-14T02:28:57.560Z,49.83
2018-01-14T02:29:29.120Z,50.38
2018-01-14T02:30:00.693Z,52.13
2018-01-14T02:30:32.266Z,56.63
2018-01-14T02:31:03.870Z,44.30
2018-01-14T02:31:35.428Z,50.28
2018-01-14T02:32:06.998Z,44.00
2018-01-14T02:32:38.555Z,49.47
2018-01-14T02:33:10.140Z,47.75
2018-01-14T02:33:41.701Z,52.05
2018-01-14T02:34:13.284Z,51.17
2018-01-14T02:34:44.848Z,54.65
2018-01-14T02:35:16.430Z,52.03
2018-01-14T02:35:47.996Z,52.60
2018-01-14T02:36:19.566Z,38.65
2018-01-14T02:36:51.169Z,52.08
2018-01-14T02:37:22.793Z,49.75
2018-01-14T02:37:54.361Z,58.03
2018-01-14T02:38:25.956Z,49.20
2018-01-14T02:38:57.516Z,51.03
2018-01-14T02:39:29.060Z,54.17
2018-01-14T02:40:00.636Z,45.75
2018-01-14T02:40:32.210Z,48.92
2018-01-14T02:41:03.784Z,49.80
2018-01-14T02:41:35.388Z,41.85
2018-01-14T02:42:06.958Z,42.13
2018-01-14T02:42:38.547Z,49.25
2018-01-14T02:43:10.120Z,53.28
2018-01-14T02:43:41.665Z,48.75
2018-01-14T02:44:13.208Z,52.70
2018-01-14T02:44:44.776Z,46.97
2018-01-14T02:45:16.366Z,54.55
2018-01-14T02:45:47.922Z,55.47
2018-01-14T02:46:22.794Z,44.47
2018-01-14T02:46:54.392Z,45.90
2018-01-14T02:47:25.976Z,52.00
2018-01-14T02:47:57.567Z,51.65
2018-01-14T02:48:29.132Z,47.62
2018-01-14T02:49:00.698Z,41.60
2018-01-14T02:49:32.259Z,54.13
2018-01-14T02:50:03.851Z,51.53
2018-01-14T02:50:35.410Z,55.78
2018-01-14T02:51:07.006Z,49.95
2018-01-14T02:51:38.578Z,54.40
2018-01-14T02:52:10.128Z,51.15
2018-01-14T02:52:41.693Z,58.42
2018-01-14T02:53:13.272Z,54.15
2018-01-14T02:53:44.844Z,49.75
2018-01-14T02:54:16.416Z,47.15
2018-01-14T02:54:48.011Z,56.47
2018-01-14T02:55:19.562Z,48.80
2018-01-14T02:55:51.134Z,49.40
2018-01-14T02:56:22.710Z,44.22
2018-01-14T02:56:54.272Z,59.13
2018-01-14T02:57:25.872Z,51.33
2018-01-14T02:57:57.426Z,56.42
2018-01-14T02:58:29.008Z,50.85
2018-01-14T02:59:00.600Z,55.33
2018-01-14T02:59:32.180Z,52.00
2018-01-14T03:00:03.774Z,53.25
2018-01-14T03:00:35.368Z,44.38
2018-01-14T03:01:06.936Z,50.15
2018-01-14T03:01:38.492Z,52.33
2018-01-14T03:02:10.040Z,53.63
2018-01-14T03:02:41.607Z,50.47
2018-01-14T03:03:13.180Z,55.53
2018-01-14T03:03:44.785Z,49.80
2018-01-14T03:04:16.354Z,41.08
2018-01-14T03:04:47.932Z,47.85
2018-01-14T03:05:19.488Z,43.17
2018-01-14T03:05:51.070Z,50.17
2018-01-14T03:06:22.632Z,44.47
2018-01-14T03:06:54.176Z,44.17
2018-01-14T03:07:25.732Z,53.17
2018-01-14T03:07:57.306Z,48.38
2018-01-14T03:08:28.848Z,51.10
2018-01-14T03:09:00.406Z,54.15
2018-01-14T03:09:31.964Z,44.75
2018-01-14T03:10:03.532Z,47.83
2018-01-14T03:10:35.086Z,51.45
2018-01-14T03:11:06.644Z,59.13
2018-01-14T03:11:38.660Z,52.88
2018-01-14T03:12:10.222Z,58.45
2018-01-14T03:12:41.796Z,50.33
2018-01-14T03:13:13.340Z,56.90
2018-01-14T03:13:44.934Z,51.75
2018-01-14T03:14:16.519Z,49.60
2018-01-14T03:14:48.084Z,54.40
2018-01-14T03:15:19.652Z,62.62
2018-01-14T03:15:51.216Z,47.03
2018-01-14T03:16:22.764Z,38.67
2018-01-14T03:16:54.312Z,50.45
2018-01-14T03:17:25.862Z,49.53
2018-01-14T03:17:57.442Z,52.22
2018-01-14T03:18:28.988Z,47.38
2018-01-14T03:19:00.547Z,41.80
2018-01-14T03:19:32.106Z,47.70
2018-01-14T03:20:03.676Z,47.30
2018-01-14T03:20:35.233Z,52.75
2018-01-14T03:21:06.768Z,42.72
2018-01-14T03:21:38.343Z,41.10
2018-01-14T03:22:09.892Z,48.08
2018-01-14T03:22:41.454Z,45.12
2018-01-14T03:23:12.999Z,49.72
2018-01-14T03:23:44.580Z,42.30
2018-01-14T03:24:16.160Z,51.17
2018-01-14T03:24:47.766Z,50.38
2018-01-14T03:25:19.332Z,49.72
2018-01-14T03:25:50.890Z,46.53
2018-01-14T03:26:22.452Z,50.35
2018-01-14T03:26:54.012Z,49.83
2018-01-14T03:27:25.548Z,47.95
2018-01-14T03:27:57.118Z,52.17
2018-01-14T03:28:28.684Z,50.53
2018-01-14T03:29:00.224Z,48.70
2018-01-14T03:29:31.808Z,51.88
2018-01-14T03:30:03.381Z,46.90
2018-01-14T03:30:34.949Z,48.10
2018-01-14T03:31:06.520Z,57.05
2018-01-14T03:31:38.146Z,43.25
2018-01-14T03:32:09.715Z,47.75
2018-01-14T03:32:41.262Z,50.72
2018-01-14T03:33:12.807Z,45.63
2018-01-14T03:33:44.358Z,44.45
2018-01-14T03:34:15.898Z,50.17
2018-01-14T03:34:47.447Z,52.30
2018-01-14T03:35:19.056Z,44.70
2018-01-14T03:35:50.608Z,36.22
2018-01-14T03:36:22.170Z,50.42
2018-01-14T03:36:53.711Z,48.20
2018-01-14T03:37:25.254Z,39.30
2018-01-14T03:37:56.800Z,43.80
2018-01-14T03:38:28.348Z,49.88
2018-01-14T03:38:59.912Z,46.22
2018-01-14T03:39:31.451Z,44.80
2018-01-14T03:40:03.017Z,44.80
2018-01-14T03:40:34.583Z,51.63
2018-01-14T03:41:06.151Z,44.67
2018-01-14T03:41:37.704Z,38.47
2018-01-14T03:42:09.266Z,43.90
2018-01-14T03:42:40.796Z,43.97
2018-01-14T03:43:12.362Z,45.80
2018-01-14T03:43:43.894Z,39.97
2018-01-14T03:44:15.448Z,38.58
2018-01-14T03:44:47.030Z,44.63
2018-01-14T03:45:18.595Z,42.60
2018-01-14T03:45:50.148Z,31.52
2018-01-14T03:46:21.696Z,48.08
2018-01-14T03:46:53.240Z,35.67
2018-01-14T03:47:24.787Z,47.33
2018-01-14T03:47:56.342Z,40.65
2018-01-14T03:48:27.898Z,47.55
2018-01-14T03:48:59.458Z,44.58
2018-01-14T03:49:30.999Z,45.25
2018-01-14T03:50:02.602Z,46.33
2018-01-14T03:50:34.144Z,41.33
2018-01-14T03:51:05.750Z,38.03
2018-01-14T03:51:37.292Z,35.67
2018-01-14T03:52:08.836Z,38.03
2018-01-14T03:52:40.392Z,39.92
2018-01-14T03:53:11.940Z,43.28
2018-01-14T03:53:43.504Z,45.05
2018-01-14T03:54:15.066Z,45.12
2018-01-14T03:54:46.612Z,40.85
2018-01-14T03:55:18.164Z,42.13
2018-01-14T03:55:49.710Z,40.20
2018-01-14T03:56:21.264Z,43.15
2018-01-14T03:56:52.800Z,40.88
2018-01-14T03:57:24.375Z,39.85
2018-01-14T03:57:55.930Z,39.47
2018-01-14T03:58:27.470Z,45.40
2018-01-14T03:58:59.026Z,41.47
2018-01-14T03:59:30.588Z,38.45
2018-01-14T04:00:02.175Z,35.55
2018-01-14T04:00:33.748Z,42.80
2018-01-14T04:01:05.312Z,42.65
2018-01-14T04:01:36.849Z,46.78
2018-01-14T04:02:08.396Z,43.58
2018-01-14T04:02:39.956Z,43.55
2018-01-14T04:03:11.520Z,44.92
2018-01-14T04:03:43.085Z,47.67
2018-01-14T04:04:14.652Z,42.08
2018-01-14T04:04:46.200Z,43.42
2018-01-14T04:05:17.793Z,38.78
2018-01-14T04:05:49.344Z,39.63
2018-01-14T04:06:20.882Z,42.78
2018-01-14T04:06:52.447Z,40.58
2018-01-14T04:07:24.020Z,43.15
2018-01-14T04:07:55.568Z,40.90
2018-01-14T04:08:27.096Z,45.03
2018-01-14T04:08:58.642Z,42.40
2018-01-14T04:09:30.196Z,41.17
2018-01-14T04:10:01.752Z,43.40
2018-01-14T04:10:33.324Z,41.88
2018-01-14T04:11:04.906Z,39.97
2018-01-14T04:11:36.453Z,36.72
2018-01-14T04:12:08.026Z,33.13
2018-01-14T04:12:39.574Z,30.23
2018-01-14T04:13:11.120Z,37.42
2018-01-14T04:13:42.668Z,36.45
2018-01-14T04:14:14.226Z,41.67
2018-01-14T04:14:45.782Z,42.15
2018-01-14T04:15:17.364Z,41.35
2018-01-14T04:15:48.906Z,40.70
2018-01-14T04:16:20.502Z,35.60
2018-01-14T04:16:52.016Z,40.03
2018-01-14T04:17:23.593Z,41.35
2018-01-14T04:17:55.223Z,42.15
2018-01-14T04:18:26.804Z,41.42
2018-01-14T04:18:58.374Z,38.67
2018-01-14T04:19:29.943Z,41.28
2018-01-14T04:20:01.504Z,45.00
2018-01-14T04:20:33.072Z,38.33
2018-01-14T04:21:04.618Z,40.38
2018-01-14T04:21:36.176Z,42.38
2018-01-14T04:22:07.736Z,38.88
2018-01-14T04:22:39.315Z,41.60
2018-01-14T04:23:10.840Z,39.00
2018-01-14T04:23:42.403Z,41.97
2018-01-14T04:24:13.936Z,34.28
2018-01-14T04:24:45.496Z,44.05
2018-01-14T04:25:17.046Z,40.12
2018-01-14T04:25:48.591Z,35.45
2018-01-14T04:26:20.133Z,41.22
2018-01-14T04:26:51.699Z,38.10
2018-01-14T04:27:23.258Z,39.20
2018-01-14T04:27:54.821Z,41.10
2018-01-14T04:28:26.394Z,39.95
2018-01-14T04:28:57.948Z,42.15
2018-01-14T04:29:29.507Z,37.92
2018-01-14T04:30:01.074Z,30.90
2018-01-14T04:30:32.682Z,35.50
2018-01-14T04:31:04.228Z,39.20
2018-01-14T04:31:35.762Z,28.15
2018-01-14T04:32:07.292Z,35.78
2018-01-14T04:32:38.854Z,34.53
2018-01-14T04:33:10.428Z,36.45
2018-01-14T04:33:41.984Z,36.78
2018-01-14T04:34:13.540Z,36.88
2018-01-14T04:34:45.096Z,38.28
2018-01-14T04:35:16.636Z,40.30
2018-01-14T04:35:48.186Z,38.78
2018-01-14T04:36:19.760Z,33.33
2018-01-14T04:36:51.314Z,35.03
2018-01-14T04:37:22.901Z,37.50
2018-01-14T04:37:54.453Z,38.40
2018-01-14T04:38:26.044Z,36.35
2018-01-14T04:38:57.591Z,39.75
2018-01-14T04:39:29.160Z,37.30
2018-01-14T04:40:00.702Z,44.05
2018-01-14T04:40:32.266Z,41.90
2018-01-14T04:41:03.846Z,32.08
2018-01-14T04:41:35.420Z,34.63
2018-01-14T04:42:06.980Z,38.42
2018-01-14T04:42:38.516Z,39.15
2018-01-14T04:43:10.075Z,37.92
2018-01-14T04:43:41.631Z,42.65
2018-01-14T04:44:13.188Z,38.75
2018-01-14T04:44:44.766Z,38.53
2018-01-14T04:45:16.324Z,41.33
2018-01-14T04:45:47.868Z,35.70
2018-01-14T04:46:19.409Z,39.92
2018-01-14T04:46:51.054Z,37.53
2018-01-14T04:47:22.591Z,41.22
2018-01-14T04:47:54.142Z,37.88
2018-01-14T04:48:25.698Z,39.78
2018-01-14T04:48:57.271Z,25.98
2018-01-14T04:49:28.805Z,34.55
2018-01-14T04:50:00.347Z,37.72
2018-01-14T04:50:31.898Z,41.55
2018-01-14T04:51:03.472Z,36.75
2018-01-14T04:51:35.016Z,38.95
2018-01-14T04:52:06.560Z,41.63
2018-01-14T04:52:38.116Z,39.40
2018-01-14T04:53:09.682Z,39.28
2018-01-14T04:53:41.242Z,41.25
2018-01-14T04:54:12.808Z,35.95
2018-01-14T04:54:44.344Z,37.95
2018-01-14T04:55:15.888Z,38.20
2018-01-14T04:55:47.444Z,40.72
2018-01-14T04:56:18.988Z,29.85
2018-01-14T04:56:50.538Z,29.70
2018-01-14T04:57:22.102Z,37.50
2018-01-14T04:57:53.643Z,39.40
2018-01-14T04:58:25.214Z,39.75
2018-01-14T04:58:56.797Z,38.58
2018-01-14T04:59:28.392Z,40.40
2018-01-14T04:59:59.962Z,37.47
2018-01-14T05:00:31.534Z,33.72
2018-01-14T05:01:03.107Z,37.42
2018-01-14T05:01:34.660Z,34.70
2018-01-14T05:02:06.224Z,32.85
2018-01-14T05:02:37.774Z,32.40
2018-01-14T05:03:09.341Z,37.42
2018-01-14T05:03:40.884Z,32.38
2018-01-14T05:04:12.446Z,35.92
2018-01-14T05:04:44.002Z,31.83
2018-01-14T05:05:15.558Z,37.40
2018-01-14T05:05:47.116Z,34.47
2018-01-14T05:06:18.666Z,35.60
2018-01-14T05:06:50.225Z,35.40
2018-01-14T05:07:21.763Z,43.25
2018-01-14T05:07:53.316Z,38.92
2018-01-14T05:08:24.864Z,41.25
2018-01-14T05:08:56.424Z,40.63
2018-01-14T05:09:27.960Z,37.05
2018-01-14T05:09:59.504Z,38.22
2018-01-14T05:10:31.065Z,33.45
2018-01-14T05:11:02.646Z,36.83
2018-01-14T05:11:34.182Z,35.92
2018-01-14T05:12:05.755Z,31.80
2018-01-14T05:12:37.309Z,36.30
2018-01-14T05:13:08.842Z,29.73
2018-01-14T05:13:40.404Z,23.62
2018-01-14T05:14:11.976Z,32.47
2018-01-14T05:14:43.516Z,38.60
2018-01-14T05:15:15.084Z,33.55
2018-01-14T05:15:46.636Z,38.10
2018-01-14T05:16:18.182Z,39.10
2018-01-14T05:16:49.766Z,33.95
2018-01-14T05:17:21.318Z,33.40
2018-01-14T05:17:52.864Z,35.92
2018-01-14T05:18:24.441Z,35.17
2018-01-14T05:18:55.992Z,39.10
2018-01-14T05:19:27.547Z,38.13
2018-01-14T05:19:59.105Z,35.45
2018-01-14T05:20:30.647Z,35.20
2018-01-14T05:21:02.202Z,31.08
2018-01-14T05:21:33.736Z,38.70
2018-01-14T05:22:05.287Z,31.25
2018-01-14T05:22:36.860Z,36.67
2018-01-14T05:23:08.396Z,36.83
2018-01-14T05:23:39.954Z,36.00
2018-01-14T05:24:11.520Z,33.42
2018-01-14T05:24:43.068Z,39.28
2018-01-14T05:25:14.657Z,30.95
2018-01-14T05:25:46.220Z,32.55
2018-01-14T05:26:17.787Z,32.00
2018-01-14T05:26:49.324Z,37.15
2018-01-14T05:27:20.882Z,29.85
2018-01-14T05:27:52.438Z,33.78
2018-01-14T05:28:23.984Z,38.10
2018-01-14T05:28:55.508Z,32.15
2018-01-14T05:29:27.040Z,32.38
2018-01-14T05:29:58.592Z,33.28
2018-01-14T05:30:30.128Z,37.55
2018-01-14T05:31:01.700Z,32.30
2018-01-14T05:31:33.347Z,31.50
2018-01-14T05:32:04.911Z,37.65
2018-01-14T05:32:36.466Z,33.80
2018-01-14T05:33:08.021Z,33.80
2018-01-14T05:33:39.570Z,37.13
2018-01-14T05:34:11.124Z,31.17
2018-01-14T05:34:42.681Z,37.75
2018-01-14T05:35:14.224Z,38.05
2018-01-14T05:35:45.774Z,34.92
2018-01-14T05:36:17.369Z,29.95
2018-01-14T05:36:48.926Z,30.58
2018-01-14T05:37:20.483Z,35.17
2018-01-14T05:37:52.046Z,33.33
2018-01-14T05:38:23.588Z,28.70
2018-01-14T05:38:55.131Z,36.30
2018-01-14T05:39:26.708Z,33.20
2018-01-14T05:39:58.302Z,34.20
2018-01-14T05:40:29.843Z,35.53
2018-01-14T05:41:01.384Z,37.03
2018-01-14T05:41:32.963Z,34.95
2018-01-14T05:42:04.511Z,32.63
2018-01-14T05:42:36.072Z,32.25
2018-01-14T05:43:07.632Z,31.52
2018-01-14T05:43:39.194Z,34.95
2018-01-14T05:44:10.736Z,34.38
2018-01-14T05:44:42.288Z,37.45
2018-01-14T05:45:13.836Z,35.70
2018-01-14T05:45:45.386Z,36.13
2018-01-14T05:46:16.950Z,37.75
2018-01-14T05:46:48.546Z,29.12
2018-01-14T05:47:20.148Z,32.38
2018-01-14T05:47:51.690Z,32.05
2018-01-14T05:48:23.268Z,34.15
2018-01-14T05:48:54.830Z,34.22
2018-01-14T05:49:26.367Z,36.30
2018-01-14T05:49:57.924Z,34.25
2018-01-14T05:50:29.460Z,25.80
2018-01-14T05:51:00.996Z,32.83
2018-01-14T05:51:32.554Z,35.20
2018-01-14T05:52:04.115Z,35.05
2018-01-14T05:52:35.680Z,34.72
2018-01-14T05:53:07.219Z,35.35
2018-01-14T05:53:38.778Z,31.62
2018-01-14T05:54:10.339Z,30.50
2018-01-14T05:54:41.897Z,29.08
2018-01-14T05:55:13.463Z,35.88
2018-01-14T05:55:45.018Z,33.03
2018-01-14T05:56:16.556Z,36.05
2018-01-14T05:56:48.126Z,37.47
2018-01-14T05:57:19.680Z,34.72
2018-01-14T05:57:51.199Z,35.03
2018-01-14T05:58:22.754Z,35.47
2018-01-14T05:58:54.300Z,31.12
2018-01-14T05:59:25.853Z,31.37
2018-01-14T05:59:57.390Z,34.30
2018-01-14T06:00:28.956Z,29.10
2018-01-14T06:01:00.528Z,32.92
2018-01-14T06:01:32.089Z,29.92
2018-01-14T06:02:03.639Z,33.28
2018-01-14T06:02:35.181Z,33.88
2018-01-14T06:03:06.727Z,34.83
2018-01-14T06:03:38.276Z,31.30
2018-01-14T06:04:09.841Z,36.63
2018-01-14T06:04:41.420Z,33.35
2018-01-14T06:05:13.002Z,35.05
2018-01-14T06:05:44.556Z,34.42
2018-01-14T06:06:16.112Z,32.67
2018-01-14T06:06:47.651Z,30.85
2018-01-14T06:07:19.240Z,36.83
2018-01-14T06:07:50.824Z,32.47
2018-01-14T06:08:22.425Z,35.17
2018-01-14T06:08:53.984Z,32.50
2018-01-14T06:09:25.554Z,34.05
2018-01-14T06:09:57.112Z,25.98
2018-01-14T06:10:28.676Z,33.70
2018-01-14T06:11:00.250Z,32.00
2018-01-14T06:11:31.827Z,29.17
2018-01-14T06:12:03.404Z,31.37
2018-01-14T06:12:34.966Z,33.75
2018-01-14T06:13:06.567Z,36.08
2018-01-14T06:13:38.124Z,33.78
2018-01-14T06:14:09.686Z,33.58
2018-01-14T06:14:41.236Z,32.95
2018-01-14T06:15:12.792Z,32.25
2018-01-14T06:15:44.420Z,32.60
2018-01-14T06:16:15.970Z,34.45
2018-01-14T06:16:47.536Z,31.33
2018-01-14T06:17:19.100Z,30.75
2018-01-14T06:17:50.679Z,28.82
2018-01-14T06:18:22.251Z,32.90
2018-01-14T06:18:53.802Z,31.15
2018-01-14T06:19:25.362Z,31.92
2018-01-14T06:19:56.920Z,25.73
2018-01-14T06:20:28.482Z,24.50
2018-01-14T06:21:00.056Z,28.75
2018-01-14T06:21:31.621Z,32.67
2018-01-14T06:22:03.183Z,29.90
2018-01-14T06:22:34.756Z,34.00
2018-01-14T06:23:06.320Z,32.88
2018-01-14T06:23:37.887Z,33.08
2018-01-14T06:24:09.440Z,31.20
2018-01-14T06:24:41.010Z,29.48
2018-01-14T06:25:12.592Z,32.78
2018-01-14T06:25:44.159Z,29.40
2018-01-14T06:26:15.724Z,33.50
2018-01-14T06:26:47.283Z,33.17
2018-01-14T06:27:18.862Z,33.80
2018-01-14T06:27:50.509Z,32.38
2018-01-14T06:28:22.098Z,37.65
2018-01-14T06:28:53.672Z,33.58
2018-01-14T06:29:25.234Z,34.50
2018-01-14T06:29:56.890Z,34.05
2018-01-14T06:30:28.490Z,33.50
2018-01-14T06:31:00.056Z,28.98
2018-01-14T06:31:31.637Z,24.35
2018-01-14T06:32:03.196Z,31.67
2018-01-14T06:32:34.752Z,29.35
2018-01-14T06:33:06.337Z,29.90
2018-01-14T06:33:37.906Z,31.80
2018-01-14T06:34:09.472Z,30.23
2018-01-14T06:34:41.034Z,32.78
2018-01-14T06:35:12.578Z,31.08
2018-01-14T06:35:44.142Z,32.75
2018-01-14T06:36:15.724Z,32.35
2018-01-14T06:36:47.289Z,32.80
2018-01-14T06:37:18.850Z,30.48
2018-01-14T06:37:50.401Z,32.75
2018-01-14T06:38:21.980Z,28.35
2018-01-14T06:38:53.524Z,31.75
2018-01-14T06:39:25.100Z,29.70
2018-01-14T06:39:56.665Z,30.08
2018-01-14T06:40:28.232Z,36.10
2018-01-14T06:40:59.800Z,32.17
2018-01-14T06:41:31.367Z,33.92
2018-01-14T06:42:02.948Z,32.20
2018-01-14T06:42:34.493Z,36.95
2018-01-14T06:43:06.063Z,33.20
2018-01-14T06:43:37.612Z,30.42
2018-01-14T06:44:09.160Z,32.97
2018-01-14T06:44:40.724Z,36.67
2018-01-14T06:45:12.291Z,32.70
2018-01-14T06:45:43.858Z,32.35
2018-01-14T06:46:15.424Z,28.75